Time;durP1;ratioP1;P1;durP2;ratioP2;P2;SDS_P1;SDS_P2;PMS_P1;PMS_P2;Temp;Humidity;BMP_temperature;BMP_pressure;BME280_temperature;BME280_humidity;BME280_pressure;Samples;Min_cycle;Max_cycle;Signal;HPM_P1;HPM_P2
2023/11/17 00:01:28;;;;;;;0.03;0.03;;;10.60;99.90;;;;;;4973326;28;20255;-66
2023/11/17 00:03:55;;;;;;;0.30;0.10;;;10.70;99.90;;;;;;4985603;28;20690;-66
2023/11/17 00:06:25;;;;;;;0.10;0.10;;;10.70;99.90;;;;;;4969485;28;20207;-66
2023/11/17 00:08:52;;;;;;;0.23;0.10;;;10.70;99.90;;;;;;4980001;28;20201;-66
2023/11/17 00:11:20;;;;;;;0.00;0.00;;;10.70;99.90;;;;;;4972520;28;20214;-66
2023/11/17 00:13:49;;;;;;;0.30;0.00;;;10.60;99.90;;;;;;4972993;28;20289;-66
2023/11/17 00:16:17;;;;;;;0.10;0.00;;;10.50;99.90;;;;;;4978067;28;20290;-66
2023/11/17 00:18:44;;;;;;;0.07;0.00;;;10.50;99.90;;;;;;4973181;28;20640;-65
2023/11/17 00:21:13;;;;;;;2.63;0.10;;;10.60;99.90;;;;;;4979785;28;20200;-66
2023/11/17 00:23:40;;;;;;;0.33;0.00;;;10.60;99.90;;;;;;4988088;28;20313;-66
2023/11/17 00:26:08;;;;;;;0.60;0.00;;;10.80;99.90;;;;;;4981513;28;20840;-65
2023/11/17 00:28:40;;;;;;;1.40;0.07;;;10.90;99.90;;;;;;4979112;28;20241;-65
2023/11/17 00:31:07;;;;;;;0.00;0.00;;;10.90;99.90;;;;;;4983566;28;20276;-66
2023/11/17 00:33:34;;;;;;;0.07;0.00;;;10.20;99.90;;;;;;4984823;28;20266;-65
2023/11/17 00:36:01;;;;;;;0.27;0.00;;;10.80;99.90;;;;;;4973806;28;20255;-66
2023/11/17 00:38:31;;;;;;;0.17;0.10;;;10.80;99.90;;;;;;4983991;28;20258;-65
2023/11/17 00:40:58;;;;;;;0.27;0.00;;;10.80;99.90;;;;;;4972559;28;20697;-65
2023/11/17 00:43:25;;;;;;;0.30;0.00;;;10.70;99.90;;;;;;4971204;28;20251;-66
2023/11/17 00:45:57;;;;;;;0.00;0.00;;;10.70;99.90;;;;;;4971319;28;20698;-66
2023/11/17 00:48:25;;;;;;;0.00;0.00;;;10.60;99.90;;;;;;4981250;28;20261;-66
2023/11/17 00:50:53;;;;;;;0.00;0.00;;;10.50;99.90;;;;;;4983759;28;20263;-66
2023/11/17 00:53:22;;;;;;;0.10;0.00;;;10.40;99.90;;;;;;4983446;28;20258;-66
2023/11/17 00:55:50;;;;;;;0.00;0.00;;;10.30;99.90;;;;;;4979221;28;20202;-65
2023/11/17 00:58:17;;;;;;;0.00;0.00;;;10.20;99.90;;;;;;4980060;28;20202;-66
2023/11/17 01:00:44;;;;;;;0.03;0.00;;;10.20;99.90;;;;;;4983505;28;20264;-66
2023/11/17 01:03:12;;;;;;;0.10;0.00;;;10.20;99.90;;;;;;4986144;28;20247;-66
2023/11/17 01:05:39;;;;;;;0.00;0.00;;;10.20;99.90;;;;;;4970843;28;20231;-66
2023/11/17 01:08:06;;;;;;;0.10;0.10;;;10.20;99.90;;;;;;4974538;28;20265;-66
2023/11/17 01:10:34;;;;;;;0.00;0.00;;;10.20;99.90;;;;;;4983588;28;20725;-65
2023/11/17 01:13:01;;;;;;;0.00;0.00;;;10.20;99.90;;;;;;4971919;28;20321;-66
2023/11/17 01:15:28;;;;;;;1.13;0.00;;;10.30;99.90;;;;;;4975422;28;20234;-65
2023/11/17 01:17:55;;;;;;;0.20;0.00;;;10.30;99.90;;;;;;4970204;28;20719;-66
2023/11/17 01:20:23;;;;;;;0.00;0.00;;;10.20;99.90;;;;;;4991258;28;20252;-66
2023/11/17 01:22:50;;;;;;;0.00;0.00;;;10.20;99.90;;;;;;4988895;28;20230;-65
2023/11/17 01:25:17;;;;;;;0.00;0.00;;;10.10;99.90;;;;;;4974697;28;20222;-65
2023/11/17 01:27:44;;;;;;;1.00;0.00;;;10.10;99.90;;;;;;4981892;28;20276;-66
2023/11/17 01:30:12;;;;;;;0.00;0.00;;;10.00;99.90;;;;;;4974581;28;20206;-66
2023/11/17 01:32:39;;;;;;;0.00;0.00;;;10.00;99.90;;;;;;4983599;28;20265;-66
2023/11/17 01:35:07;;;;;;;0.00;0.00;;;10.00;99.90;;;;;;4968617;28;20258;-66
2023/11/17 01:37:35;;;;;;;0.00;0.00;;;9.90;99.90;;;;;;4977128;28;20226;-66
2023/11/17 01:40:05;;;;;;;0.00;0.00;;;9.80;99.90;;;;;;4983120;28;20677;-66
2023/11/17 01:42:33;;;;;;;0.63;0.00;;;9.80;99.90;;;;;;4976135;28;20203;-66
2023/11/17 01:45:00;;;;;;;1.30;0.00;;;9.80;99.90;;;;;;4975430;28;20785;-66
2023/11/17 01:47:27;;;;;;;0.00;0.00;;;9.80;99.90;;;;;;4975605;28;20215;-66
2023/11/17 01:49:54;;;;;;;0.00;0.00;;;9.80;99.90;;;;;;4976274;28;20210;-66
2023/11/17 01:52:21;;;;;;;0.00;0.00;;;9.80;99.90;;;;;;4976221;28;20257;-66
2023/11/17 01:54:50;;;;;;;0.00;0.00;;;9.80;99.90;;;;;;4983026;28;20606;-66
2023/11/17 01:57:18;;;;;;;0.00;0.00;;;9.80;99.90;;;;;;4979493;28;20293;-66
2023/11/17 01:59:45;;;;;;;0.00;0.00;;;9.70;99.90;;;;;;4978158;28;20269;-66
2023/11/17 02:02:12;;;;;;;0.00;0.00;;;9.70;99.90;;;;;;4995397;28;20612;-66
2023/11/17 02:04:38;;;;;;;0.00;0.00;;;9.60;99.90;;;;;;4995158;28;20241;-66
2023/11/17 02:07:15;;;;;;;0.00;0.00;;;9.60;99.90;;;;;;4994343;28;20276;-66
2023/11/17 02:09:50;;;;;;;0.00;0.00;;;9.50;99.90;;;;;;4990891;28;20260;-66
2023/11/17 02:12:34;;;;;;;0.00;0.00;;;9.40;99.90;;;;;;4978714;28;20323;-66
2023/11/17 02:15:09;;;;;;;0.20;0.00;;;9.40;99.90;;;;;;4985419;28;20211;-66
2023/11/17 02:17:37;;;;;;;0.50;0.00;;;9.20;99.90;;;;;;4995575;28;20212;-66
2023/11/17 02:20:12;;;;;;;0.00;0.00;;;9.10;99.90;;;;;;4983862;28;20749;-66
2023/11/17 02:22:45;;;;;;;0.43;0.00;;;9.00;99.90;;;;;;4981551;28;20236;-66
2023/11/17 02:25:21;;;;;;;0.00;0.00;;;8.80;99.90;;;;;;4987047;28;20248;-66
2023/11/17 02:27:59;;;;;;;0.00;0.00;;;8.70;99.90;;;;;;4994428;28;20212;-66
2023/11/17 02:30:29;;;;;;;0.53;0.00;;;8.70;99.90;;;;;;4974765;28;20710;-67
2023/11/17 02:32:59;;;;;;;0.97;0.10;;;8.60;99.90;;;;;;4982887;28;20285;-66
2023/11/17 02:35:29;;;;;;;0.00;0.00;;;8.40;99.90;;;;;;4986832;28;20220;-66
2023/11/17 02:38:00;;;;;;;0.00;0.00;;;8.30;99.90;;;;;;4995202;28;20296;-66
2023/11/17 02:40:31;;;;;;;0.00;0.00;;;8.10;99.90;;;;;;4994119;28;20272;-66
2023/11/17 02:42:59;;;;;;;0.10;0.00;;;7.90;99.90;;;;;;4984488;28;20315;-66
2023/11/17 02:45:27;;;;;;;0.00;0.00;;;7.80;99.90;;;;;;4982898;28;20698;-66
2023/11/17 02:47:56;;;;;;;0.00;0.00;;;7.70;99.90;;;;;;4975462;28;20213;-66
2023/11/17 02:50:31;;;;;;;0.00;0.00;;;7.50;99.90;;;;;;4975306;28;20231;-66
2023/11/17 02:53:10;;;;;;;0.47;0.47;;;7.50;99.90;;;;;;4975454;28;20223;-67
2023/11/17 02:55:39;;;;;;;0.00;0.00;;;7.40;99.90;;;;;;4973948;28;20274;-66
2023/11/17 02:58:06;;;;;;;1.80;0.00;;;7.40;99.90;;;;;;4975028;28;20264;-66
2023/11/17 03:00:35;;;;;;;0.10;0.00;;;7.30;99.90;;;;;;4975488;28;20207;-66
2023/11/17 03:03:02;;;;;;;0.00;0.00;;;7.30;99.90;;;;;;4975060;28;20300;-66
2023/11/17 03:05:29;;;;;;;0.00;0.00;;;7.40;99.90;;;;;;4979583;28;20227;-66
2023/11/17 03:07:56;;;;;;;0.00;0.00;;;7.40;99.90;;;;;;4977741;28;20210;-67
2023/11/17 03:10:24;;;;;;;0.20;0.00;;;7.40;99.90;;;;;;4980419;28;20210;-66
2023/11/17 03:12:55;;;;;;;0.00;0.00;;;7.40;99.90;;;;;;4974324;28;20282;-67
2023/11/17 03:15:22;;;;;;;0.00;0.00;;;7.40;99.90;;;;;;4985890;28;20573;-67
2023/11/17 03:17:51;;;;;;;0.00;0.00;;;7.40;99.90;;;;;;4994615;28;20275;-66
2023/11/17 03:20:19;;;;;;;0.00;0.00;;;7.40;99.90;;;;;;4984799;28;20201;-66
2023/11/17 03:22:46;;;;;;;0.00;0.00;;;7.40;99.90;;;;;;4985035;28;20835;-66
2023/11/17 03:25:15;;;;;;;0.00;0.00;;;7.40;99.90;;;;;;4985539;28;20688;-65
2023/11/17 03:27:43;;;;;;;0.00;0.00;;;7.40;99.90;;;;;;4994425;28;20205;-66
2023/11/17 03:30:11;;;;;;;0.00;0.00;;;7.40;99.90;;;;;;4994223;28;20296;-66
2023/11/17 03:32:38;;;;;;;0.00;0.00;;;7.50;99.90;;;;;;4981944;28;20300;-66
2023/11/17 03:35:07;;;;;;;0.27;0.00;;;7.50;99.90;;;;;;4992408;28;20680;-66
2023/11/17 03:37:34;;;;;;;0.00;0.00;;;7.50;99.90;;;;;;4992910;28;20210;-66
2023/11/17 03:40:06;;;;;;;0.00;0.00;;;7.40;99.90;;;;;;4986086;28;20237;-66
2023/11/17 03:42:35;;;;;;;0.00;0.00;;;7.40;99.90;;;;;;4982788;28;20252;-66
2023/11/17 03:45:07;;;;;;;0.00;0.00;;;7.30;99.90;;;;;;4991884;28;20232;-66
2023/11/17 03:47:34;;;;;;;0.00;0.00;;;7.30;99.90;;;;;;4993951;28;20206;-66
2023/11/17 03:50:03;;;;;;;0.00;0.00;;;7.20;99.90;;;;;;4993769;28;20287;-66
2023/11/17 03:52:32;;;;;;;0.00;0.00;;;7.10;99.90;;;;;;4983839;28;20265;-66
2023/11/17 03:55:00;;;;;;;0.00;0.00;;;7.00;99.90;;;;;;4983085;28;20240;-66
2023/11/17 03:57:27;;;;;;;0.00;0.00;;;6.90;99.90;;;;;;4993921;28;20209;-66
2023/11/17 03:59:57;;;;;;;0.00;0.00;;;6.90;99.90;;;;;;4983071;28;20637;-66
2023/11/17 04:02:24;;;;;;;0.00;0.00;;;6.90;99.90;;;;;;4975991;28;20261;-66
2023/11/17 04:04:51;;;;;;;0.00;0.00;;;6.90;99.90;;;;;;4984020;28;20230;-66
2023/11/17 04:07:19;;;;;;;0.00;0.00;;;6.80;99.90;;;;;;4984978;28;20570;-66
2023/11/17 04:09:48;;;;;;;0.10;0.10;;;6.80;99.90;;;;;;4993483;28;20688;-66
2023/11/17 04:12:15;;;;;;;0.00;0.00;;;6.80;99.90;;;;;;4992584;28;20262;-66
2023/11/17 04:14:45;;;;;;;0.00;0.00;;;6.80;99.90;;;;;;4987925;28;20778;-66
2023/11/17 04:17:12;;;;;;;0.00;0.00;;;6.80;99.90;;;;;;4980722;28;20202;-66
2023/11/17 04:19:41;;;;;;;0.00;0.00;;;6.90;99.90;;;;;;4979448;28;20269;-66
2023/11/17 04:22:09;;;;;;;0.00;0.00;;;6.80;99.90;;;;;;4984325;28;20203;-66
2023/11/17 04:24:37;;;;;;;0.00;0.00;;;6.80;99.90;;;;;;4993219;28;20263;-66
2023/11/17 04:27:06;;;;;;;0.00;0.00;;;6.80;99.90;;;;;;4989961;28;20253;-66
2023/11/17 04:29:33;;;;;;;0.00;0.00;;;6.80;99.90;;;;;;4984955;28;20206;-66
2023/11/17 04:32:00;;;;;;;0.00;0.00;;;6.80;99.90;;;;;;4992952;28;20213;-66
2023/11/17 04:34:27;;;;;;;0.00;0.00;;;6.70;99.90;;;;;;4987053;28;20319;-66
2023/11/17 04:36:54;;;;;;;0.00;0.00;;;6.70;99.90;;;;;;4987428;28;20681;-66
2023/11/17 04:39:24;;;;;;;0.00;0.00;;;6.70;99.90;;;;;;4985107;28;20198;-66
2023/11/17 04:41:51;;;;;;;0.00;0.00;;;6.60;99.90;;;;;;4992949;28;20265;-66
2023/11/17 04:44:19;;;;;;;0.30;0.00;;;6.60;99.90;;;;;;4992758;28;20226;-66
2023/11/17 04:46:47;;;;;;;0.20;0.00;;;6.60;99.90;;;;;;4991486;28;20261;-67
2023/11/17 04:49:14;;;;;;;0.00;0.00;;;6.60;99.90;;;;;;4981244;28;20678;-66
2023/11/17 04:51:46;;;;;;;0.00;0.00;;;6.50;99.90;;;;;;4981144;28;20203;-66
2023/11/17 04:54:14;;;;;;;0.10;0.10;;;6.50;99.90;;;;;;4992219;28;20221;-66
2023/11/17 04:56:41;;;;;;;0.53;0.00;;;6.50;99.90;;;;;;4992244;28;20216;-68
2023/11/17 04:59:09;;;;;;;0.10;0.10;;;6.50;99.90;;;;;;4992570;28;20215;-66
2023/11/17 05:01:38;;;;;;;0.43;0.10;;;6.50;99.90;;;;;;4985998;28;20207;-66
2023/11/17 05:04:05;;;;;;;2.17;0.43;;;6.40;99.90;;;;;;4974067;28;20234;-66
2023/11/17 05:06:35;;;;;;;4.33;1.17;;;6.70;99.90;;;;;;4978124;28;20604;-66
2023/11/17 05:09:09;;;;;;;0.87;0.30;;;6.30;99.90;;;;;;4973108;28;20214;-68
2023/11/17 05:11:36;;;;;;;0.10;0.10;;;6.20;99.90;;;;;;4973003;28;20612;-66
2023/11/17 05:14:03;;;;;;;0.00;0.00;;;6.10;99.90;;;;;;4972385;28;20226;-66
2023/11/17 05:16:34;;;;;;;0.00;0.00;;;6.10;99.90;;;;;;4978681;28;20209;-66
2023/11/17 05:19:03;;;;;;;0.20;0.00;;;6.00;99.90;;;;;;4982090;28;20203;-66
2023/11/17 05:21:31;;;;;;;2.57;0.87;;;5.90;99.90;;;;;;4992320;28;20213;-66
2023/11/17 05:23:58;;;;;;;16.43;9.00;;;5.80;99.90;;;;;;4992176;28;20236;-68
2023/11/17 05:26:25;;;;;;;1.13;0.73;;;5.80;99.90;;;;;;4990267;28;20275;-68
2023/11/17 05:28:52;;;;;;;1.10;0.73;;;5.80;99.90;;;;;;4980817;28;20734;-68
2023/11/17 05:31:20;;;;;;;0.60;0.60;;;5.70;99.90;;;;;;4987396;28;20205;-68
2023/11/17 05:33:47;;;;;;;0.60;0.60;;;5.70;99.90;;;;;;4986139;28;20238;-68
2023/11/17 05:36:16;;;;;;;0.10;0.10;;;5.70;99.90;;;;;;4983752;28;20252;-67
2023/11/17 05:38:43;;;;;;;0.10;0.10;;;5.60;99.90;;;;;;4992109;28;20211;-68
2023/11/17 05:41:11;;;;;;;0.10;0.00;;;5.60;99.90;;;;;;4978871;28;20269;-68
2023/11/17 05:43:37;;;;;;;0.00;0.00;;;5.60;99.90;;;;;;4985899;28;20302;-68
2023/11/17 05:46:05;;;;;;;0.00;0.00;;;5.60;99.90;;;;;;4983398;28;20273;-69
2023/11/17 05:48:32;;;;;;;0.00;0.00;;;5.60;99.90;;;;;;4989488;28;20308;-68
2023/11/17 05:51:03;;;;;;;0.10;0.00;;;5.60;99.90;;;;;;4972787;28;20278;-65
2023/11/17 05:53:34;;;;;;;0.00;0.00;;;5.60;99.90;;;;;;4972311;28;20822;-68
2023/11/17 05:56:02;;;;;;;0.00;0.00;;;5.60;99.90;;;;;;4971940;28;20214;-68
2023/11/17 05:58:29;;;;;;;0.00;0.00;;;5.60;99.90;;;;;;4972485;28;20215;-64
2023/11/17 06:00:56;;;;;;;0.17;0.00;;;5.60;99.90;;;;;;4978998;28;20228;-65
2023/11/17 06:03:22;;;;;;;0.00;0.00;;;5.60;99.90;;;;;;4972184;28;20237;-65
2023/11/17 06:05:49;;;;;;;0.20;0.00;;;5.60;99.90;;;;;;4972304;28;20266;-68
2023/11/17 06:08:16;;;;;;;0.00;0.00;;;5.70;99.90;;;;;;4973595;28;20264;-65
2023/11/17 06:10:45;;;;;;;0.87;0.00;;;5.60;99.90;;;;;;4970288;28;20205;-65
2023/11/17 06:13:14;;;;;;;0.53;0.10;;;5.60;99.90;;;;;;4971774;28;20234;-65
2023/11/17 06:15:41;;;;;;;0.97;0.00;;;5.70;99.90;;;;;;4971628;28;20206;-65
2023/11/17 06:18:08;;;;;;;0.00;0.00;;;5.80;99.90;;;;;;4971090;28;20745;-68
2023/11/17 06:20:35;;;;;;;0.17;0.10;;;5.80;99.90;;;;;;4970050;28;20200;-66
2023/11/17 06:23:02;;;;;;;0.00;0.00;;;5.70;99.90;;;;;;4971107;28;20283;-65
2023/11/17 06:25:32;;;;;;;0.40;0.17;;;6.00;99.90;;;;;;4973731;28;20702;-65
2023/11/17 06:28:00;;;;;;;0.00;0.00;;;6.00;99.90;;;;;;4974144;28;20238;-65
2023/11/17 06:30:27;;;;;;;0.00;0.00;;;5.90;99.90;;;;;;4973549;28;20214;-68
2023/11/17 06:32:54;;;;;;;0.00;0.00;;;6.00;99.90;;;;;;4973950;28;20228;-68
2023/11/17 06:35:21;;;;;;;0.00;0.00;;;6.10;99.90;;;;;;4972697;28;20210;-68
2023/11/17 06:37:48;;;;;;;0.43;0.00;;;6.00;99.90;;;;;;4973346;28;20310;-65
2023/11/17 06:40:15;;;;;;;0.00;0.00;;;6.00;99.90;;;;;;4975272;28;20207;-65
2023/11/17 06:42:43;;;;;;;0.27;0.17;;;5.90;99.90;;;;;;4972556;28;20666;-65
2023/11/17 06:45:12;;;;;;;1.10;0.00;;;6.00;99.90;;;;;;4974728;28;20206;-66
2023/11/17 06:47:41;;;;;;;0.00;0.00;;;5.90;99.90;;;;;;4973232;28;20230;-66
2023/11/17 06:50:11;;;;;;;0.20;0.10;;;;;;;;;;4970760;28;20212;-67
2023/11/17 06:52:39;;;;;;;1.70;0.10;;;;;;;;;;4972120;28;20201;-66
2023/11/17 06:55:06;;;;;;;0.00;0.00;;;5.70;99.90;;;;;;4975370;28;20211;-69
2023/11/17 06:57:33;;;;;;;0.00;0.00;;;5.90;99.90;;;;;;4972739;28;20688;-65
2023/11/17 07:00:00;;;;;;;0.00;0.00;;;6.00;99.90;;;;;;4974058;28;20198;-68
2023/11/17 07:02:29;;;;;;;0.00;0.00;;;;;;;;;;4973275;28;20218;-66
2023/11/17 07:04:56;;;;;;;0.10;0.10;;;5.80;99.90;;;;;;4973343;28;20305;-66
2023/11/17 07:07:24;;;;;;;0.20;0.20;;;5.80;99.90;;;;;;4973792;28;20362;-65
2023/11/17 07:09:51;;;;;;;0.10;0.10;;;5.90;99.90;;;;;;4974895;28;20233;-65
2023/11/17 07:12:19;;;;;;;0.20;0.10;;;5.90;99.90;;;;;;4966739;28;20206;-66
2023/11/17 07:14:48;;;;;;;1.10;0.10;;;;;;;;;;4972699;28;20232;-66
2023/11/17 07:17:15;;;;;;;0.00;0.00;;;;;;;;;;4965125;28;20200;-65
2023/11/17 07:19:45;;;;;;;0.57;0.10;;;;;;;;;;4972915;28;20230;-66
2023/11/17 07:22:12;;;;;;;0.10;0.10;;;5.90;99.90;;;;;;4972816;28;20727;-65
2023/11/17 07:24:39;;;;;;;0.10;0.10;;;;;;;;;;4972465;28;20222;-66
2023/11/17 07:27:07;;;;;;;0.67;0.20;;;5.90;99.90;;;;;;4974030;28;20226;-67
2023/11/17 07:29:36;;;;;;;1.03;0.23;;;6.00;99.90;;;;;;4971229;28;20232;-65
2023/11/17 07:32:04;;;;;;;0.77;0.20;;;6.00;99.90;;;;;;4973690;28;20665;-65
2023/11/17 07:34:31;;;;;;;0.20;0.20;;;;;;;;;;4974166;28;20259;-66
2023/11/17 07:37:01;;;;;;;0.40;0.40;;;;;;;;;;4971954;28;20206;-66
2023/11/17 07:39:28;;;;;;;0.50;0.30;;;;;;;;;;4974140;28;20216;-65
2023/11/17 07:41:55;;;;;;;1.93;0.80;;;;;;;;;;4974196;28;20201;-66
2023/11/17 07:44:22;;;;;;;0.70;0.63;;;6.00;99.90;;;;;;4974255;28;20274;-65
2023/11/17 07:46:49;;;;;;;1.27;1.00;;;;;;;;;;4974335;28;20222;-65
2023/11/17 07:49:17;;;;;;;0.93;0.70;;;;;;;;;;4973977;28;20753;-67
2023/11/17 07:51:47;;;;;;;0.70;0.70;;;;;;;;;;4973290;28;20295;-66
2023/11/17 07:54:16;;;;;;;0.47;0.47;;;;;;;;;;4971774;28;20233;-66
2023/11/17 07:56:43;;;;;;;0.77;0.77;;;;;;;;;;4968106;28;20206;-69
2023/11/17 07:59:12;;;;;;;1.07;0.83;;;;;;;;;;4973738;28;20210;-66
2023/11/17 08:01:39;;;;;;;1.90;0.70;;;;;;;;;;4973819;28;20218;-66
2023/11/17 08:04:08;;;;;;;1.33;0.30;;;;;;;;;;4971722;28;20288;-65
2023/11/17 08:06:37;;;;;;;1.57;0.70;;;;;;;;;;4972030;28;20214;-66
2023/11/17 08:09:09;;;;;;;0.40;0.40;;;;;;;;;;4970566;28;20862;-67
2023/11/17 08:11:37;;;;;;;0.40;0.40;;;;;;;;;;4972269;28;20210;-65
2023/11/17 08:14:05;;;;;;;2.30;0.70;;;;;;;;;;4972497;28;20282;-62
2023/11/17 08:16:37;;;;;;;0.80;0.80;;;;;;;;;;4973032;28;20285;-62
2023/11/17 08:19:08;;;;;;;2.50;0.93;;;;;;;;;;4973514;28;20214;-64
2023/11/17 08:21:35;;;;;;;2.17;0.93;;;;;;;;;;4980069;28;20210;-63
2023/11/17 08:24:02;;;;;;;7.13;3.40;;;;;;;;;;4972764;28;20605;-62
2023/11/17 08:26:33;;;;;;;1.40;1.23;;;;;;;;;;4972920;28;20277;-62
2023/11/17 08:29:03;;;;;;;0.73;0.70;;;;;;;;;;4972465;28;20260;-64
2023/11/17 08:31:33;;;;;;;1.23;0.40;;;;;;;;;;4973155;28;20668;-64
2023/11/17 08:34:01;;;;;;;0.20;0.20;;;;;;;;;;4973052;28;20320;-65
2023/11/17 08:36:29;;;;;;;0.30;0.30;;;;;;;;;;4972939;28;20239;-62
2023/11/17 08:38:57;;;;;;;0.97;0.40;;;;;;;;;;4973706;28;20234;-63
2023/11/17 08:41:24;;;;;;;0.53;0.53;;;;;;;;;;4977172;28;20261;-64
2023/11/17 08:43:53;;;;;;;0.63;0.60;;;;;;;;;;4980161;28;20347;-64
2023/11/17 08:46:23;;;;;;;0.60;0.50;;;;;;;;;;4968373;28;20460;-67
2023/11/17 08:48:51;;;;;;;1.37;0.40;;;5.60;99.90;;;;;;4971846;28;20232;-60
2023/11/17 08:51:18;;;;;;;1.60;1.50;;;5.80;99.90;;;;;;4981671;28;20292;-65
2023/11/17 08:53:45;;;;;;;1.30;1.20;;;5.90;99.90;;;;;;4979774;28;20281;-67
2023/11/17 08:56:12;;;;;;;1.07;0.63;;;5.90;99.90;;;;;;4979348;28;20281;-60
2023/11/17 08:58:39;;;;;;;2.80;1.10;;;5.80;99.90;;;;;;4976102;28;20234;-62
2023/11/17 09:01:07;;;;;;;0.90;0.70;;;5.80;99.90;;;;;;4981103;28;20284;-61
2023/11/17 09:03:35;;;;;;;0.40;0.40;;;5.80;99.90;;;;;;4984151;28;20232;-64
2023/11/17 09:06:03;;;;;;;0.77;0.10;;;5.80;99.90;;;;;;4979803;28;20239;-64
2023/11/17 09:08:31;;;;;;;0.10;0.10;;;5.70;99.90;;;;;;4972171;28;20229;-64
2023/11/17 09:10:58;;;;;;;0.00;0.00;;;5.70;99.90;;;;;;4974066;28;20209;-61
2023/11/17 09:13:28;;;;;;;0.10;0.10;;;5.70;99.90;;;;;;4961162;28;20235;-63
2023/11/17 09:15:55;;;;;;;0.10;0.10;;;5.50;99.90;;;;;;4969453;28;20276;-67
2023/11/17 09:18:22;;;;;;;0.30;0.10;;;5.50;99.90;;;;;;4973955;28;20196;-67
2023/11/17 09:20:50;;;;;;;0.00;0.00;;;5.50;99.90;;;;;;4972302;28;20202;-67
2023/11/17 09:23:17;;;;;;;0.03;0.03;;;5.50;99.90;;;;;;4971631;28;20259;-67
2023/11/17 09:25:44;;;;;;;0.10;0.10;;;5.60;99.90;;;;;;4971166;28;20300;-68
2023/11/17 09:28:11;;;;;;;0.40;0.10;;;5.60;99.90;;;;;;4976368;28;20282;-67
2023/11/17 09:30:39;;;;;;;0.10;0.10;;;5.70;99.90;;;;;;4971787;28;20242;-67
2023/11/17 09:33:08;;;;;;;0.20;0.20;;;5.70;99.90;;;;;;4987164;28;20292;-68
2023/11/17 09:35:36;;;;;;;0.20;0.10;;;5.80;99.90;;;;;;4985850;28;20568;-68
2023/11/17 09:38:05;;;;;;;0.20;0.20;;;5.80;99.90;;;;;;4992178;28;20205;-67
2023/11/17 09:40:33;;;;;;;0.50;0.50;;;5.80;99.90;;;;;;4984666;28;20265;-68
2023/11/17 09:43:01;;;;;;;0.43;0.40;;;;;;;;;;4989424;28;20257;-67
2023/11/17 09:45:30;;;;;;;1.27;0.30;;;5.80;99.90;;;;;;4988575;28;20268;-67
2023/11/17 09:47:59;;;;;;;0.40;0.40;;;5.80;99.90;;;;;;4976545;28;20599;-68
2023/11/17 09:50:27;;;;;;;0.67;0.67;;;6.00;99.90;;;;;;4982588;28;20201;-67
2023/11/17 09:52:55;;;;;;;0.20;0.20;;;5.70;99.90;;;;;;4991963;28;20319;-67
2023/11/17 09:55:27;;;;;;;0.30;0.30;;;5.80;99.90;;;;;;4985804;28;20567;-68
2023/11/17 09:57:56;;;;;;;0.47;0.30;;;5.80;99.90;;;;;;4972452;28;20204;-68
2023/11/17 10:00:27;;;;;;;0.50;0.50;;;5.80;99.90;;;;;;4974632;28;20207;-67
2023/11/17 10:02:55;;;;;;;0.50;0.50;;;5.80;99.90;;;;;;4987372;28;20232;-67
2023/11/17 10:05:23;;;;;;;0.47;0.47;;;5.80;99.90;;;;;;4974926;28;20201;-71
2023/11/17 10:07:55;;;;;;;0.60;0.60;;;5.80;99.90;;;;;;4987820;28;20314;-67
2023/11/17 10:10:26;;;;;;;1.40;0.73;;;5.70;99.90;;;;;;4995836;28;20244;-67
2023/11/17 10:12:56;;;;;;;0.60;0.60;;;5.70;99.90;;;;;;4995606;28;20233;-67
2023/11/17 10:15:25;;;;;;;1.23;0.60;;;5.60;99.90;;;;;;4995485;28;20207;-70
2023/11/17 10:17:57;;;;;;;0.80;0.60;;;5.70;99.90;;;;;;4995544;28;20209;-67
2023/11/17 10:20:26;;;;;;;0.93;0.60;;;5.70;99.90;;;;;;4982511;28;20216;-67
2023/11/17 10:22:54;;;;;;;0.43;0.30;;;5.70;99.90;;;;;;4991742;28;20240;-67
2023/11/17 10:25:23;;;;;;;1.43;0.63;;;5.60;99.90;;;;;;4995271;28;20233;-68
2023/11/17 10:27:51;;;;;;;0.40;0.40;;;5.60;99.90;;;;;;4994306;28;20738;-67
2023/11/17 10:30:19;;;;;;;0.90;0.10;;;5.70;99.90;;;;;;4995230;28;20203;-69
2023/11/17 10:32:58;;;;;;;1.23;0.20;;;;;;;;;;4994280;28;20209;-67
2023/11/17 10:35:24;;;;;;;0.87;0.17;;;;;;;;;;4992621;28;20241;-70
2023/11/17 10:37:54;;;;;;;0.93;0.37;;;;;;;;;;4986243;28;20275;-69
2023/11/17 10:40:28;;;;;;;0.73;0.30;;;5.80;99.90;;;;;;4995369;28;20255;-69
2023/11/17 10:43:08;;;;;;;0.43;0.30;;;5.50;99.90;;;;;;4995044;28;20229;-67
2023/11/17 10:45:37;;;;;;;2.80;0.20;;;5.40;99.90;;;;;;4994812;28;20293;-68
2023/11/17 10:48:06;;;;;;;0.20;0.20;;;5.40;99.90;;;;;;4995293;28;20356;-67
2023/11/17 10:50:35;;;;;;;0.27;0.27;;;5.50;99.90;;;;;;4995376;28;20205;-67
2023/11/17 10:53:19;;;;;;;0.60;0.50;;;5.50;99.90;;;;;;4985199;28;20224;-69
2023/11/17 10:55:48;;;;;;;0.40;0.40;;;5.40;99.90;;;;;;4994780;28;20203;-67
2023/11/17 10:58:16;;;;;;;0.50;0.40;;;5.30;99.90;;;;;;4995001;28;20204;-67
2023/11/17 11:00:44;;;;;;;0.20;0.20;;;5.40;99.90;;;;;;4994934;28;20207;-67
2023/11/17 11:03:13;;;;;;;0.73;0.30;;;5.40;99.90;;;;;;4994607;28;20238;-70
2023/11/17 11:05:41;;;;;;;0.20;0.20;;;5.40;99.90;;;;;;4994226;28;20246;-67
2023/11/17 11:08:13;;;;;;;0.47;0.40;;;5.30;99.90;;;;;;4984893;28;20227;-69
2023/11/17 11:10:52;;;;;;;0.10;0.10;;;5.40;99.90;;;;;;4981243;28;20218;-67
2023/11/17 11:13:19;;;;;;;0.37;0.37;;;5.30;99.90;;;;;;4975042;28;20719;-67
2023/11/17 11:15:48;;;;;;;0.37;0.30;;;5.30;99.90;;;;;;4988149;28;20763;-67
2023/11/17 11:18:16;;;;;;;0.40;0.40;;;5.10;99.90;;;;;;4975858;28;20215;-69
2023/11/17 11:20:46;;;;;;;1.10;1.00;;;5.30;99.90;;;;;;4974890;28;20214;-68
2023/11/17 11:23:16;;;;;;;0.00;0.00;;;5.30;99.90;;;;;;4974992;28;20311;-70
2023/11/17 11:25:45;;;;;;;0.10;0.00;;;5.10;99.90;;;;;;4972907;28;20236;-70
2023/11/17 11:28:15;;;;;;;0.20;0.20;;;6.10;99.90;;;;;;4975147;28;20309;-69
2023/11/17 11:30:43;;;;;;;0.30;0.30;;;5.20;99.90;;;;;;4975483;28;20205;-70
2023/11/17 11:33:11;;;;;;;0.40;0.32;;;5.10;99.90;;;;;;4970146;28;21095;-68
2023/11/17 11:35:40;;;;;;;0.10;0.10;;;5.20;99.90;;;;;;4972998;28;20299;-67
2023/11/17 11:38:09;;;;;;;0.40;0.40;;;5.10;99.90;;;;;;4972837;28;20202;-67
2023/11/17 11:40:41;;;;;;;1.77;0.40;;;5.10;99.90;;;;;;4982604;28;20233;-67
2023/11/17 11:43:09;;;;;;;0.20;0.20;;;5.00;99.90;;;;;;4973523;28;20305;-69
2023/11/17 11:45:38;;;;;;;0.27;0.27;;;5.30;99.90;;;;;;4972179;28;20201;-68
2023/11/17 11:48:08;;;;;;;0.63;0.30;;;5.10;99.90;;;;;;4973153;28;20219;-67
2023/11/17 11:50:39;;;;;;;1.07;0.87;;;5.10;99.90;;;;;;4970807;28;20240;-66
2023/11/17 11:53:24;;;;;;;0.77;0.38;;;5.10;99.90;;;;;;4971218;28;20462;-69
2023/11/17 11:55:53;;;;;;;0.10;0.10;;;5.10;99.90;;;;;;4974209;28;20289;-69
2023/11/17 11:58:24;;;;;;;0.20;0.20;;;5.10;99.90;;;;;;4973654;28;20211;-69
2023/11/17 12:00:54;;;;;;;0.30;0.30;;;5.20;99.90;;;;;;4981904;28;20213;-69
2023/11/17 12:03:24;;;;;;;0.53;0.33;;;5.20;99.90;;;;;;4993459;28;20229;-69
2023/11/17 12:05:53;;;;;;;0.93;0.50;;;5.00;99.90;;;;;;4981311;28;20245;-69
2023/11/17 12:08:27;;;;;;;0.50;0.50;;;5.10;99.90;;;;;;4974434;28;20293;-69
2023/11/17 12:10:57;;;;;;;1.13;0.30;;;5.10;99.90;;;;;;4982148;28;20205;-68
2023/11/17 12:13:37;;;;;;;0.30;0.30;;;5.00;99.90;;;;;;4954988;29;20222;-67
2023/11/17 12:16:09;;;;;;;0.40;0.30;;;5.00;99.90;;;;;;4954651;29;20246;-69
2023/11/17 12:18:36;;;;;;;0.63;0.20;;;5.10;99.90;;;;;;4954961;29;20204;-69
2023/11/17 12:21:16;;;;;;;0.40;0.40;;;5.10;99.90;;;;;;4958620;28;20251;-67
2023/11/17 12:23:57;;;;;;;1.23;0.43;;;5.10;99.90;;;;;;4970495;28;20273;-69
2023/11/17 12:26:25;;;;;;;0.50;0.50;;;5.00;99.90;;;;;;4984720;28;20208;-67
2023/11/17 12:28:53;;;;;;;0.40;0.40;;;5.00;99.90;;;;;;4993988;28;20223;-69
2023/11/17 12:31:22;;;;;;;1.30;0.30;;;5.00;99.90;;;;;;4993432;28;20623;-69
2023/11/17 12:33:51;;;;;;;0.33;0.33;;;5.00;99.90;;;;;;4983485;28;20231;-67
2023/11/17 12:36:20;;;;;;;0.30;0.30;;;5.00;99.90;;;;;;4987948;28;20259;-69
2023/11/17 12:38:52;;;;;;;0.20;0.20;;;4.90;99.90;;;;;;4971778;28;20681;-69
2023/11/17 12:41:23;;;;;;;2.63;0.50;;;4.90;99.90;;;;;;4972881;28;20214;-70
2023/11/17 12:43:51;;;;;;;3.53;1.33;;;4.80;99.90;;;;;;4972998;28;20226;-69
2023/11/17 12:46:18;;;;;;;0.20;0.20;;;4.80;99.90;;;;;;4970707;28;20676;-67
2023/11/17 12:48:47;;;;;;;0.20;0.20;;;4.80;99.90;;;;;;4971991;28;20769;-68
2023/11/17 12:51:24;;;;;;;0.20;0.20;;;4.90;99.90;;;;;;4969635;28;20235;-67
2023/11/17 12:53:52;;;;;;;0.10;0.10;;;4.80;99.90;;;;;;4967753;28;20220;-67
2023/11/17 12:56:19;;;;;;;1.30;0.50;;;4.80;99.90;;;;;;4971925;28;20258;-67
2023/11/17 12:58:46;;;;;;;0.40;0.40;;;4.90;99.90;;;;;;4972380;28;20202;-66
2023/11/17 13:01:16;;;;;;;0.33;0.33;;;5.00;99.90;;;;;;4972499;28;20265;-67
2023/11/17 13:03:44;;;;;;;0.50;0.20;;;4.90;99.90;;;;;;4972610;28;20231;-67
2023/11/17 13:06:12;;;;;;;0.20;0.20;;;5.20;99.90;;;;;;4972217;28;20210;-66
2023/11/17 13:08:40;;;;;;;0.50;0.10;;;5.10;99.90;;;;;;4970295;28;20226;-67
2023/11/17 13:11:07;;;;;;;0.20;0.10;;;5.10;99.90;;;;;;4972583;28;20633;-67
2023/11/17 13:13:37;;;;;;;0.60;0.20;;;5.10;99.90;;;;;;4972749;28;20222;-67
2023/11/17 13:16:08;;;;;;;0.10;0.10;;;5.20;99.90;;;;;;4968648;28;20691;-67